Bei Facebook empfehlenBei Twitter postenGoogle plusPinterest

Das Wetter im Erzgebirge am 03.05.2017

Wetter und Klima am 03.05.2017 Holzhau im Erzgebirge (630m ü.NN)
Letzte gemessene Temperatur und Uhrzeit der Messung23:45:00 Uhr8.40 °C
Temperatur (Maximum / Höchstwert) und Uhrzeit der Messung12:30:00 Uhr16.10 °C
Temperatur (Minimum / Tiefstwert) und Uhrzeit der Messung03:30:000.30 °C
Errechneter Absolutwert der Temperaturschwankungen zwischen Tmin und Tmax des Tages15.80 K
Errechnete Tagesmitteltemperatur9.23958 °C
Gesamt - Niederschlag des Tages (in flüssiger Form)0.00 Liter / m²
Luftdruck (Maximum / Höchstwert) und Zeitpunkt der Messung14:00:00 Uhr1016.60 hPa
Luftdruck (Minimum / Tiefstwert) und Zeitpunkt der Messung22:00:00 Uhr1013.30 hPa
Errechneter Absolutwert der Luftdruckschwankungen des Tages3.30 hPa
Höchste gemessene Windgeschwindigkeit und Uhrzeit der Messung22:15:00 Uhr18.36 km/h
Errechnete Windhäufigkeit in Relation zu den Messwerten des Tages50.00000 %
Niedrigste Windkühle (Windchill) und Zeitpunkt der Messung03:30:00 Uhr0.30 °C
Taupunkt (Maximum / Höchstwert) und Uhrzeit der Messung08:15:00 Uhr7.70 °C
Taupunkt (Minimum / Tiefstwert) und Uhrzeit der Messung03:30:00-1.00 °C
Anzahl der automatisch eingelesenen Messwerte 96

Detaillierte Wetter- und Klima- Messwerte für den 03.05.2017 in Holzhau im Erzgebirge (630m ü.NN)
ZeitTemperaturLuftdruckRel. LuftfeuchteWindWindrichtungWindchillTaupunktNiederschlag l/m²
23:45:008.40 °C1013.60 hPa87.00 %6.40 °C 
23:30:008.60 °C1013.60 hPa86.00 %6.40 °C 
23:15:008.90 °C1013.60 hPa85.00 %6.50 °C 
23:00:008.90 °C1013.50 hPa84.00 %1.80 km/hONO8.90 °C6.30 °C 
22:45:009.00 °C1013.50 hPa84.00 %1.80 km/hNO9.00 °C6.40 °C 
22:30:009.10 °C1013.60 hPa84.00 %5.40 km/hSO8.60 °C6.50 °C 
22:15:009.10 °C1013.50 hPa84.00 %18.36 km/hSO6.40 °C6.50 °C 
22:00:009.10 °C1013.30 hPa83.00 %11.16 km/hSO7.40 °C6.40 °C 
21:45:009.10 °C1013.30 hPa83.00 %6.40 °C 
21:30:009.20 °C1013.50 hPa83.00 %6.84 km/hOSO8.30 °C6.50 °C 
21:15:009.30 °C1013.50 hPa82.00 %2.52 km/hOSO9.30 °C6.40 °C 
21:00:009.30 °C1013.70 hPa81.00 %6.48 km/hSO8.50 °C6.20 °C 
20:45:009.40 °C1013.60 hPa81.00 %10.44 km/hSO7.80 °C6.30 °C 
20:30:009.50 °C1013.70 hPa79.00 %7.20 km/hOSO8.60 °C6.00 °C 
20:15:009.80 °C1013.80 hPa78.00 %7.20 km/hSO8.90 °C6.20 °C 
20:00:0010.10 °C1013.50 hPa76.00 %6.48 km/hO9.50 °C6.10 °C 
19:45:0010.40 °C1013.50 hPa74.00 %5.04 km/hSO10.20 °C6.00 °C 
19:30:0010.90 °C1013.50 hPa72.00 %7.92 km/hNO10.10 °C6.10 °C 
19:15:0011.40 °C1013.50 hPa71.00 %6.30 °C 
19:00:0011.90 °C1013.50 hPa68.00 %6.20 °C 
18:45:0012.40 °C1013.80 hPa66.00 %7.20 km/hNNW12.00 °C6.20 °C 
18:30:0012.90 °C1013.50 hPa63.00 %6.00 °C 
18:15:0013.00 °C1013.70 hPa62.00 %5.90 °C 
18:00:0013.60 °C1013.90 hPa61.00 %5.04 km/hSO13.80 °C6.20 °C 
17:45:0013.80 °C1013.90 hPa61.00 %6.40 °C 
17:30:0013.60 °C1014.00 hPa62.00 %10.08 km/hOSO12.90 °C6.50 °C 
17:15:0013.90 °C1014.10 hPa61.00 %5.04 km/hS14.20 °C6.50 °C 
17:00:0013.90 °C1014.10 hPa61.00 %2.16 km/hONO13.90 °C6.50 °C 
16:45:0013.90 °C1014.20 hPa62.00 %6.70 °C 
16:30:0014.30 °C1014.30 hPa60.00 %5.40 km/hOSO14.50 °C6.60 °C 
16:15:0014.40 °C1014.40 hPa62.00 %7.20 °C 
16:00:0014.70 °C1014.70 hPa62.00 %2.52 km/hNNO14.70 °C7.50 °C 
15:45:0015.00 °C1014.80 hPa61.00 %7.50 °C 
15:30:0014.90 °C1015.00 hPa59.00 %7.00 °C 
15:15:0014.80 °C1015.30 hPa58.00 %4.68 km/hNNO14.80 °C6.60 °C 
15:00:0015.30 °C1015.70 hPa59.00 %7.30 °C 
14:45:0015.10 °C1015.90 hPa57.00 %14.40 km/hOSO14.30 °C6.70 °C 
14:30:0014.50 °C1016.20 hPa58.00 %8.28 km/hWNW14.20 °C6.30 °C 
14:15:0014.50 °C1016.40 hPa58.00 %6.30 °C 
14:00:0014.90 °C1016.60 hPa57.00 %11.16 km/hSSO14.30 °C6.50 °C 
13:45:0015.20 °C1016.20 hPa58.00 %1.80 km/hOSO15.20 °C7.00 °C 
13:30:0015.60 °C1016.40 hPa53.00 %15.12 km/hSO14.80 °C6.10 °C 
13:15:0015.70 °C1016.50 hPa52.00 %7.92 km/hNNO15.70 °C5.90 °C 
13:00:0015.70 °C1016.30 hPa50.00 %7.20 km/hOSO15.80 °C5.30 °C 
12:45:0015.80 °C1016.30 hPa49.00 %1.80 km/hOSO15.80 °C5.10 °C 
12:30:0016.10 °C1016.60 hPa49.00 %1.08 km/hNNO16.10 °C5.40 °C 
12:15:0015.60 °C1016.10 hPa51.00 %11.16 km/hNNW15.20 °C5.50 °C 
12:00:0015.60 °C1016.20 hPa50.00 %6.12 km/hOSO15.90 °C5.20 °C 
11:45:0015.40 °C1016.30 hPa50.00 %5.00 °C 
11:30:0015.90 °C1016.40 hPa49.00 %5.20 °C 
11:15:0015.90 °C1016.10 hPa47.00 %10.08 km/hNNO15.70 °C4.60 °C 
11:00:0015.20 °C1016.10 hPa49.00 %1.08 km/hONO15.20 °C4.60 °C 
10:45:0015.10 °C1016.00 hPa50.00 %3.60 km/hSO15.10 °C4.80 °C 
10:30:0014.70 °C1016.00 hPa51.00 %4.70 °C 
10:15:0015.00 °C1016.10 hPa50.00 %1.08 km/hNNO15.00 °C4.70 °C 
10:00:0014.70 °C1015.90 hPa54.00 %5.50 °C 
09:45:0014.30 °C1016.10 hPa54.00 %5.10 °C 
09:30:0014.10 °C1016.10 hPa57.00 %9.36 km/hSO13.60 °C5.70 °C 
09:15:0013.60 °C1016.00 hPa59.00 %5.70 °C 
09:00:0013.40 °C1016.00 hPa61.00 %6.00 °C 
08:45:0013.30 °C1016.10 hPa62.00 %6.20 °C 
08:30:0013.20 °C1016.20 hPa66.00 %7.00 °C 
08:15:0012.40 °C1016.20 hPa73.00 %7.70 °C 
08:00:0010.50 °C1016.20 hPa81.00 %7.40 °C 
07:45:008.10 °C1016.30 hPa87.00 %6.10 °C 
07:30:005.80 °C1016.20 hPa90.00 %1.44 km/hOSO5.80 °C4.30 °C 
07:15:004.80 °C1016.30 hPa92.00 %3.60 °C 
07:00:003.00 °C1016.20 hPa93.00 %2.00 °C 
06:45:002.40 °C1016.30 hPa93.00 %0.72 km/hOSO2.40 °C1.40 °C 
06:30:001.90 °C1016.10 hPa93.00 %1.08 km/hOSO1.90 °C0.90 °C 
06:15:001.60 °C1016.00 hPa93.00 %0.60 °C 
06:00:001.40 °C1016.10 hPa92.00 %0.20 °C 
05:45:001.30 °C1016.00 hPa92.00 %0.10 °C 
05:30:001.30 °C1015.90 hPa92.00 %0.36 km/hSO1.30 °C0.10 °C 
05:15:001.30 °C1015.80 hPa93.00 %0.30 °C 
05:00:000.90 °C1015.80 hPa92.00 %1.08 km/hOSO0.90 °C-0.20 °C 
04:45:000.60 °C1016.00 hPa92.00 %1.44 km/hSO0.60 °C-0.50 °C 
04:30:000.40 °C1015.80 hPa92.00 %-0.70 °C 
04:15:000.40 °C1015.80 hPa91.00 %-0.90 °C 
04:00:000.80 °C1015.90 hPa91.00 %-0.50 °C 
03:45:000.40 °C1015.90 hPa91.00 %-0.90 °C 
03:30:000.30 °C1015.80 hPa91.00 %-1.00 °C 
03:15:000.40 °C1015.70 hPa91.00 %-0.90 °C 
03:00:000.70 °C1015.80 hPa90.00 %-0.70 °C 
02:45:001.00 °C1015.90 hPa90.00 %-0.50 °C 
02:30:001.30 °C1015.70 hPa91.00 %0.00 °C 
02:15:001.60 °C1015.80 hPa91.00 %0.30 °C 
02:00:001.60 °C1015.70 hPa91.00 %0.30 °C 
01:45:001.50 °C1015.50 hPa90.00 %0.00 °C 
01:30:001.80 °C1015.40 hPa90.00 %0.30 °C 
01:15:002.10 °C1015.30 hPa90.00 %1.08 km/hSO2.10 °C0.60 °C 
01:00:002.30 °C1015.30 hPa90.00 %0.36 km/hOSO2.30 °C0.80 °C 
00:45:002.20 °C1015.40 hPa90.00 %4.68 km/hSO2.20 °C0.70 °C 
00:30:002.10 °C1015.60 hPa89.00 %1.08 km/hSO2.10 °C0.50 °C 
00:15:002.40 °C1015.50 hPa89.00 %0.80 °C 
00:00:002.50 °C1015.50 hPa88.00 %0.70 °C 

Permanenter Link zu dieser Seite: Wetter im Erzgebirge am 03.05.2017
Performance-Info: Die Erstellung der Seite / Statistik(en) / Tabelle(n) erforderte 5 Datenbankserver-Abfrage(n) und dauerte 70 Millisekunden. (Dieser Messwert ist von der Gesamt-Auslastung des Servers abhängig.)
Erzgebirge - Wetter | Erzgebirge - Wetter (Mobilgeräte) | Komplette Klimadatenbank